Corona Boreale — IKVG2 — position and weather

sailwx.info

Track history (hours):
 
Tides and Currents Weather Stations Pressure Air Temp Water Temp Dewpoint Dewpoint Depression Visibility Wind Speed Wind Dir Waves Ship Positions

Corona Boreale

Last reported at 2018-Jan-20 05:00 UTC. Time now 2018-Jan-20 05:21 UTC.
Position N 44°17' E 009°05'.

Length 166 m; draft 7.7 m.

Type: Cargo ship. MMSI: 247257300.

Date/timePositionNaut miles runAvg speedWind from/ knotsBaromVisibWave heightAir tempDewpointWater temp
2018-Jan-20 05:00N 44°17' E 009°05'611.7
2018-Jan-20 04:30N 44°12' E 009°10'611.7
2018-Jan-20 04:00N 44°08' E 009°15'612.0
2018-Jan-20 03:30N 44°03' E 009°20'611.7
2018-Jan-20 03:00N 43°58' E 009°25'510.2
2018-Jan-20 02:30N 43°55' E 009°31'611.2
2018-Jan-20 02:00N 43°51' E 009°36'611.2
2018-Jan-20 01:30N 43°47' E 009°41'611.4
2018-Jan-20 01:00N 43°42' E 009°46'611.4
2018-Jan-20 00:30N 43°38' E 009°51'510.9
2018-Jan-20 00:00N 43°34' E 009°56'611.1
2018-Jan-19 23:27N 43°29' E 010°02'511.3
2018-Jan-19 23:00N 43°25' E 010°05'611.2
2018-Jan-19 22:30N 43°20' E 010°09'510.7
2018-Jan-19 22:00N 43°15' E 010°13'511.0
2018-Jan-19 21:30N 43°11' E 010°16'611.3
2018-Jan-19 21:00N 43°06' E 010°20'34711.5
2018-Jan-18 14:49N 38°44' E 015°22'410.9
2018-Jan-18 14:28N 38°41' E 015°25'510.7
2018-Jan-18 13:59N 38°37' E 015°28'511.3
2018-Jan-18 13:30N 38°32' E 015°31'611.3
2018-Jan-18 13:00N 38°27' E 015°35'511.1
2018-Jan-18 12:30N 38°22' E 015°38'510.6
2018-Jan-18 12:00N 38°17' E 015°42'4 8.6
2018-Jan-18 11:30N 38°14' E 015°38'5 9.8
2018-Jan-18 10:59N 38°09' E 015°36'4 8.8
2018-Jan-18 10:30N 38°05' E 015°36'4 7.4
2018-Jan-18 10:00N 38°01' E 015°36'4 7.7
2018-Jan-18 09:30N 37°57' E 015°36'4 6.7
2018-Jan-18 08:50N 37°55' E 015°32'4 7.8
2018-Jan-18 08:20N 37°53' E 015°27'6 8.8
2018-Jan-18 07:40N 37°48' E 015°25'2 8.4
2018-Jan-18 07:26N 37°46' E 015°24'4 8.7
2018-Jan-18 06:59N 37°42' E 015°22'4 8.7
2018-Jan-18 06:28N 37°38' E 015°21'2 3.1
2018-Jan-18 05:57N 37°39' E 015°20'410.0
2018-Jan-18 05:30N 37°44' E 015°21'7 9.4
2018-Jan-18 04:48N 37°49' E 015°27'11 9.2
2018-Jan-18 03:36N 37°52' E 015°40'2 8.7
2018-Jan-18 03:24N 37°52' E 015°42'  
2018-Jan-11 15:44N 38°49' E 015°18'512.1
2018-Jan-11 15:17N 38°44' E 015°22'412.1
2018-Jan-11 14:58N 38°41' E 015°24'712.0
2018-Jan-11 14:25N 38°35' E 015°29'612.1
2018-Jan-11 13:57N 38°31' E 015°33'612.0
2018-Jan-11 13:29N 38°26' E 015°36'612.2
2018-Jan-11 13:00N 38°20' E 015°39'510.0
2018-Jan-11 12:30N 38°15' E 015°41'510.1
2018-Jan-11 12:00N 38°11' E 015°37'610.7
2018-Jan-11 11:28N 38°06' E 015°36'510.6
2018-Jan-11 11:00N 38°01' E 015°36'612.1
2018-Jan-11 10:30N 37°56' E 015°41'612.2
2018-Jan-11 10:00N 37°53' E 015°48'13210.4
2018-Jan-10 21:19N 39°48' E 017°11'412.1
2018-Jan-10 21:00N 39°52' E 017°10'611.9
2018-Jan-10 20:30N 39°57' E 017°09'611.9
2018-Jan-10 20:00N 40°03' E 017°08'612.0
2018-Jan-10 19:30N 40°09' E 017°08'612.4
2018-Jan-10 19:00N 40°15' E 017°07'612.3
2018-Jan-10 18:30N 40°22' E 017°06'612.2
2018-Jan-10 18:00N 40°28' E 017°05'4 7.7
2018-Jan-10 17:30N 40°30' E 017°09'0 0.0
2018-Jan-10 17:00N 40°30' E 017°09'0 0.0
2018-Jan-10 16:30N 40°30' E 017°09'0 0.1
2018-Jan-10 16:00N 40°30' E 017°09'4 7.9
2018-Jan-10 15:30N 40°26' E 017°07'4 8.6
2018-Jan-10 15:00N 40°28' E 017°13'1 1.8
2018-Jan-10 14:30N 40°29' E 017°13'0 0.0
2018-Jan-10 13:49N 40°29' E 017°13'0 0.0
2018-Jan-10 13:25N 40°29' E 017°13'0 0.0
2018-Jan-10 12:55N 40°29' E 017°13'0 0.0
2018-Jan-10 12:25N 40°29' E 017°13'0 0.0
2018-Jan-10 11:58N 40°29' E 017°13'0 0.0
2018-Jan-10 11:28N 40°29' E 017°13'0 0.0
2018-Jan-10 10:58N 40°29' E 017°13'0 0.0
2018-Jan-10 10:28N 40°29' E 017°13'0 0.0
2018-Jan-10 09:55N 40°29' E 017°13'0 0.0
2018-Jan-10 09:25N 40°29' E 017°13'0 0.0
2018-Jan-10 08:58N 40°29' E 017°13'0 0.0
2018-Jan-10 08:30N 40°29' E 017°13'0 0.1
2018-Jan-10 08:00N 40°29' E 017°13'0 0.8
2018-Jan-10 07:30N 40°28' E 017°13'4 7.8
2018-Jan-10 07:00N 40°25' E 017°10'3 5.8
2018-Jan-10 06:30N 40°22' E 017°10'5 9.6
2018-Jan-10 06:00N 40°19' E 017°15'5 9.1
2018-Jan-10 05:30N 40°16' E 017°19'  
Track history (hours):
 
Tides and Currents Weather Stations Pressure Air Temp Water Temp Dewpoint Dewpoint Depression Visibility Wind Speed Wind Dir Waves Ship Positions

Corona Boreale

Last reported at 2018-Jan-20 05:00 UTC. Time now 2018-Jan-20 05:21 UTC.
Position N 44°17' E 009°05'.

Length 166 m; draft 7.7 m.

Type: Cargo ship. MMSI: 247257300.

Date/timePositionNaut miles runAvg speedWind from/ knotsBaromVisibWave heightAir tempDewpointWater temp
2018-Jan-20 05:00N 44°17' E 009°05'611.7
2018-Jan-20 04:30N 44°12' E 009°10'611.7
2018-Jan-20 04:00N 44°08' E 009°15'612.0
2018-Jan-20 03:30N 44°03' E 009°20'611.7
2018-Jan-20 03:00N 43°58' E 009°25'510.2
2018-Jan-20 02:30N 43°55' E 009°31'611.2
2018-Jan-20 02:00N 43°51' E 009°36'611.2
2018-Jan-20 01:30N 43°47' E 009°41'611.4
2018-Jan-20 01:00N 43°42' E 009°46'611.4
2018-Jan-20 00:30N 43°38' E 009°51'510.9
2018-Jan-20 00:00N 43°34' E 009°56'611.1
2018-Jan-19 23:27N 43°29' E 010°02'511.3
2018-Jan-19 23:00N 43°25' E 010°05'611.2
2018-Jan-19 22:30N 43°20' E 010°09'510.7
2018-Jan-19 22:00N 43°15' E 010°13'511.0
2018-Jan-19 21:30N 43°11' E 010°16'611.3
2018-Jan-19 21:00N 43°06' E 010°20'34711.5
2018-Jan-18 14:49N 38°44' E 015°22'410.9
2018-Jan-18 14:28N 38°41' E 015°25'510.7
2018-Jan-18 13:59N 38°37' E 015°28'511.3
2018-Jan-18 13:30N 38°32' E 015°31'611.3
2018-Jan-18 13:00N 38°27' E 015°35'511.1
2018-Jan-18 12:30N 38°22' E 015°38'510.6
2018-Jan-18 12:00N 38°17' E 015°42'4 8.6
2018-Jan-18 11:30N 38°14' E 015°38'5 9.8
2018-Jan-18 10:59N 38°09' E 015°36'4 8.8
2018-Jan-18 10:30N 38°05' E 015°36'4 7.4
2018-Jan-18 10:00N 38°01' E 015°36'4 7.7
2018-Jan-18 09:30N 37°57' E 015°36'4 6.7
2018-Jan-18 08:50N 37°55' E 015°32'4 7.8
2018-Jan-18 08:20N 37°53' E 015°27'6 8.8
2018-Jan-18 07:40N 37°48' E 015°25'2 8.4
2018-Jan-18 07:26N 37°46' E 015°24'4 8.7
2018-Jan-18 06:59N 37°42' E 015°22'4 8.7
2018-Jan-18 06:28N 37°38' E 015°21'2 3.1
2018-Jan-18 05:57N 37°39' E 015°20'410.0
2018-Jan-18 05:30N 37°44' E 015°21'7 9.4
2018-Jan-18 04:48N 37°49' E 015°27'11 9.2
2018-Jan-18 03:36N 37°52' E 015°40'2 8.7
2018-Jan-18 03:24N 37°52' E 015°42'  
2018-Jan-11 15:44N 38°49' E 015°18'512.1
2018-Jan-11 15:17N 38°44' E 015°22'412.1
2018-Jan-11 14:58N 38°41' E 015°24'712.0
2018-Jan-11 14:25N 38°35' E 015°29'612.1
2018-Jan-11 13:57N 38°31' E 015°33'612.0
2018-Jan-11 13:29N 38°26' E 015°36'612.2
2018-Jan-11 13:00N 38°20' E 015°39'510.0
2018-Jan-11 12:30N 38°15' E 015°41'510.1
2018-Jan-11 12:00N 38°11' E 015°37'610.7
2018-Jan-11 11:28N 38°06' E 015°36'510.6
2018-Jan-11 11:00N 38°01' E 015°36'612.1
2018-Jan-11 10:30N 37°56' E 015°41'612.2
2018-Jan-11 10:00N 37°53' E 015°48'13210.4
2018-Jan-10 21:19N 39°48' E 017°11'412.1
2018-Jan-10 21:00N 39°52' E 017°10'611.9
2018-Jan-10 20:30N 39°57' E 017°09'611.9
2018-Jan-10 20:00N 40°03' E 017°08'612.0
2018-Jan-10 19:30N 40°09' E 017°08'612.4
2018-Jan-10 19:00N 40°15' E 017°07'612.3
2018-Jan-10 18:30N 40°22' E 017°06'612.2
2018-Jan-10 18:00N 40°28' E 017°05'4 7.7
2018-Jan-10 17:30N 40°30' E 017°09'0 0.0
2018-Jan-10 17:00N 40°30' E 017°09'0 0.0
2018-Jan-10 16:30N 40°30' E 017°09'0 0.1
2018-Jan-10 16:00N 40°30' E 017°09'4 7.9
2018-Jan-10 15:30N 40°26' E 017°07'4 8.6
2018-Jan-10 15:00N 40°28' E 017°13'1 1.8
2018-Jan-10 14:30N 40°29' E 017°13'0 0.0
2018-Jan-10 13:49N 40°29' E 017°13'0 0.0
2018-Jan-10 13:25N 40°29' E 017°13'0 0.0
2018-Jan-10 12:55N 40°29' E 017°13'0 0.0
2018-Jan-10 12:25N 40°29' E 017°13'0 0.0
2018-Jan-10 11:58N 40°29' E 017°13'0 0.0
2018-Jan-10 11:28N 40°29' E 017°13'0 0.0
2018-Jan-10 10:58N 40°29' E 017°13'0 0.0
2018-Jan-10 10:28N 40°29' E 017°13'0 0.0
2018-Jan-10 09:55N 40°29' E 017°13'0 0.0
2018-Jan-10 09:25N 40°29' E 017°13'0 0.0
2018-Jan-10 08:58N 40°29' E 017°13'0 0.0
2018-Jan-10 08:30N 40°29' E 017°13'0 0.1
2018-Jan-10 08:00N 40°29' E 017°13'0 0.8
2018-Jan-10 07:30N 40°28' E 017°13'4 7.8
2018-Jan-10 07:00N 40°25' E 017°10'3 5.8
2018-Jan-10 06:30N 40°22' E 017°10'5 9.6
2018-Jan-10 06:00N 40°19' E 017°15'5 9.1
2018-Jan-10 05:30N 40°16' E 017°19'  

Dump ship's entire track history